createdAt,value
2022-11-24T00:01:19.979Z,33.33
2022-11-24T00:03:54.003Z,35.07
2022-11-24T00:06:22.295Z,33.20
2022-11-24T00:08:52.631Z,36.47
2022-11-24T00:11:22.724Z,36.40
2022-11-24T00:13:50.834Z,37.23
2022-11-24T00:16:20.995Z,36.67
2022-11-24T00:18:52.158Z,33.23
2022-11-24T00:21:21.191Z,37.17
2022-11-24T00:23:50.062Z,35.70
2022-11-24T00:26:22.076Z,37.47
2022-11-24T00:28:52.144Z,40.40
2022-11-24T00:31:22.293Z,32.40
2022-11-24T00:33:53.436Z,35.00
2022-11-24T00:36:22.714Z,33.37
2022-11-24T00:38:54.665Z,36.10
2022-11-24T00:41:22.943Z,35.30
2022-11-24T00:43:51.089Z,35.47
2022-11-24T00:46:19.616Z,34.07
2022-11-24T00:48:50.087Z,34.57
2022-11-24T00:51:21.739Z,32.93
2022-11-24T00:53:49.928Z,30.60
2022-11-24T00:56:18.015Z,33.93
2022-11-24T00:58:46.279Z,34.40
2022-11-24T01:01:16.970Z,32.37
2022-11-24T01:03:46.760Z,30.83
2022-11-24T01:06:16.443Z,31.10
2022-11-24T01:08:46.337Z,32.20
2022-11-24T01:11:16.938Z,33.73
2022-11-24T01:13:46.643Z,28.83
2022-11-24T01:16:16.681Z,32.43
2022-11-24T01:18:44.822Z,32.00
2022-11-24T01:21:12.956Z,31.50
2022-11-24T01:23:41.011Z,30.97
2022-11-24T01:26:12.792Z,29.93
2022-11-24T01:28:46.584Z,31.27
2022-11-24T01:31:16.722Z,31.23
2022-11-24T01:33:44.860Z,33.73
2022-11-24T01:36:13.406Z,33.87
2022-11-24T01:38:41.461Z,31.47
2022-11-24T01:41:13.790Z,32.17
2022-11-24T01:43:42.567Z,31.47
2022-11-24T01:46:18.895Z,31.13
2022-11-24T01:48:51.667Z,31.60
2022-11-24T01:51:24.391Z,30.03
2022-11-24T01:53:58.004Z,31.60
2022-11-24T01:56:28.717Z,29.57
2022-11-24T01:59:00.318Z,31.53
2022-11-24T02:01:29.334Z,32.93
2022-11-24T02:03:58.387Z,31.43
2022-11-24T02:06:30.173Z,30.53
2022-11-24T02:09:01.247Z,32.97
2022-11-24T02:11:36.179Z,32.80
2022-11-24T02:14:06.253Z,30.67
2022-11-24T02:16:36.434Z,33.50
2022-11-24T02:19:08.986Z,33.57
2022-11-24T02:21:37.164Z,32.47
2022-11-24T02:24:11.837Z,31.67
2022-11-24T02:26:46.772Z,36.53
2022-11-24T02:29:15.483Z,32.00
2022-11-24T02:31:48.341Z,32.60
2022-11-24T02:34:16.670Z,30.90
2022-11-24T02:36:44.809Z,30.27
2022-11-24T02:39:13.797Z,29.87
2022-11-24T02:41:47.345Z,31.07
2022-11-24T02:44:18.910Z,31.73
2022-11-24T02:46:47.009Z,31.57
2022-11-24T02:49:16.198Z,28.50
2022-11-24T02:51:44.256Z,29.23
2022-11-24T02:54:12.329Z,30.37
2022-11-24T02:56:40.361Z,29.90
2022-11-24T02:59:09.776Z,29.33
2022-11-24T03:01:37.831Z,29.43
2022-11-24T03:04:06.133Z,29.67
2022-11-24T03:06:34.203Z,31.70
2022-11-24T03:09:02.425Z,28.97
2022-11-24T03:11:30.510Z,29.13
2022-11-24T03:13:58.613Z,31.83
2022-11-24T03:16:28.063Z,31.00
2022-11-24T03:18:56.165Z,32.00
2022-11-24T03:21:24.230Z,31.50
2022-11-24T03:23:53.618Z,30.23
2022-11-24T03:26:25.946Z,34.40
2022-11-24T03:28:57.226Z,29.50
2022-11-24T03:31:29.612Z,31.60
2022-11-24T03:33:57.699Z,30.70
2022-11-24T03:36:25.752Z,29.80
2022-11-24T03:38:54.052Z,29.03
2022-11-24T03:41:22.114Z,29.20
2022-11-24T03:43:50.143Z,32.40
2022-11-24T03:46:18.371Z,33.20
2022-11-24T03:48:47.795Z,29.23
2022-11-24T03:51:15.915Z,30.53
2022-11-24T03:53:43.954Z,32.70
2022-11-24T03:56:12.081Z,32.70
2022-11-24T03:58:40.332Z,29.80
2022-11-24T04:01:08.438Z,27.10
2022-11-24T04:03:36.510Z,33.37
2022-11-24T04:06:05.988Z,30.40
2022-11-24T04:08:34.332Z,30.07
2022-11-24T04:11:02.447Z,31.70
2022-11-24T04:13:29.504Z,31.17
2022-11-24T04:15:57.603Z,31.63
2022-11-24T04:18:25.701Z,31.70
2022-11-24T04:20:54.126Z,29.87
2022-11-24T04:23:26.236Z,28.90
2022-11-24T04:25:54.260Z,27.70
2022-11-24T04:28:22.305Z,27.10
2022-11-24T04:30:50.323Z,28.53
2022-11-24T04:33:18.365Z,27.17
2022-11-24T04:35:47.919Z,28.17
2022-11-24T04:39:19.976Z,28.20
2022-11-24T04:41:06.396Z,30.73
2022-11-24T04:43:40.258Z,32.17
2022-11-24T04:46:11.721Z,30.33
2022-11-24T04:48:41.256Z,29.83
2022-11-24T04:51:09.389Z,31.77
2022-11-24T04:53:37.469Z,29.30
2022-11-24T04:56:08.675Z,30.53
2022-11-24T04:58:36.896Z,29.10
2022-11-24T05:01:08.416Z,27.43
2022-11-24T05:03:37.007Z,26.93
2022-11-24T05:06:05.519Z,30.33
2022-11-24T05:08:33.668Z,29.13
2022-11-24T05:11:06.384Z,28.30
2022-11-24T05:13:34.760Z,27.57
2022-11-24T05:16:03.077Z,28.37
2022-11-24T05:18:32.516Z,28.97
2022-11-24T05:21:01.227Z,30.40
2022-11-24T05:23:29.477Z,30.00
2022-11-24T05:26:01.856Z,29.03
2022-11-24T05:28:31.370Z,28.27
2022-11-24T05:31:01.547Z,33.27
2022-11-24T05:33:30.219Z,30.77
2022-11-24T05:36:02.502Z,27.33
2022-11-24T05:38:30.961Z,30.43
2022-11-24T05:41:02.471Z,34.37
2022-11-24T05:43:32.383Z,32.63
2022-11-24T05:46:01.074Z,36.97
2022-11-24T05:48:29.300Z,33.27
2022-11-24T05:50:58.187Z,32.13
2022-11-24T05:53:27.030Z,31.07
2022-11-24T05:55:55.112Z,32.77
2022-11-24T05:58:23.103Z,32.57
2022-11-24T06:00:53.344Z,29.33
2022-11-24T06:03:23.900Z,32.67
2022-11-24T06:05:51.942Z,29.47
2022-11-24T06:08:19.974Z,29.37
2022-11-24T06:10:47.973Z,29.03
2022-11-24T06:13:16.253Z,26.97
2022-11-24T06:15:44.347Z,30.50
2022-11-24T06:18:13.689Z,29.17
2022-11-24T06:20:42.212Z,28.53
2022-11-24T06:23:14.091Z,25.50
2022-11-24T06:25:48.663Z,28.63
2022-11-24T06:28:19.581Z,25.60
2022-11-24T06:30:48.243Z,31.60
2022-11-24T06:33:17.624Z,26.77
2022-11-24T06:35:45.581Z,31.10
2022-11-24T06:38:14.702Z,27.20
2022-11-24T06:40:42.949Z,27.63
2022-11-24T06:43:11.338Z,28.13
2022-11-24T06:45:39.509Z,30.33
2022-11-24T06:48:07.772Z,29.57
2022-11-24T06:50:37.483Z,32.77
2022-11-24T06:53:05.536Z,33.30
2022-11-24T06:55:33.526Z,32.93
2022-11-24T06:58:01.506Z,34.73
2022-11-24T07:00:32.103Z,36.83
2022-11-24T07:03:05.427Z,35.10
2022-11-24T07:05:33.491Z,43.80
2022-11-24T07:08:02.872Z,39.50
2022-11-24T07:10:30.853Z,42.87
2022-11-24T07:12:58.860Z,46.73
2022-11-24T07:15:29.452Z,45.90
2022-11-24T07:17:57.776Z,43.27
2022-11-24T07:20:25.759Z,47.60
2022-11-24T07:22:57.910Z,47.13
2022-11-24T07:25:27.527Z,49.47
2022-11-24T07:27:57.810Z,54.17
2022-11-24T07:30:26.255Z,49.07
2022-11-24T07:32:59.290Z,50.40
2022-11-24T07:35:27.546Z,52.17
2022-11-24T07:37:56.673Z,51.43
2022-11-24T07:40:25.953Z,51.00
2022-11-24T07:42:55.518Z,50.23
2022-11-24T07:45:23.538Z,50.37
2022-11-24T07:47:51.540Z,52.40
2022-11-24T07:50:20.183Z,49.97
2022-11-24T07:52:48.200Z,50.10
2022-11-24T07:55:16.312Z,49.83
2022-11-24T07:57:44.364Z,49.17
2022-11-24T08:00:15.049Z,48.13
2022-11-24T08:02:43.389Z,49.13
2022-11-24T08:05:11.374Z,51.90
2022-11-24T08:07:39.527Z,50.97
2022-11-24T08:10:08.733Z,48.80
2022-11-24T08:12:36.763Z,47.87
2022-11-24T08:15:10.947Z,51.33
2022-11-24T08:17:40.803Z,50.13
2022-11-24T08:20:10.399Z,47.53
2022-11-24T08:22:38.472Z,46.43
2022-11-24T08:25:07.207Z,48.53
2022-11-24T08:27:35.298Z,49.50
2022-11-24T08:30:05.179Z,50.40
2022-11-24T08:32:33.260Z,49.60
2022-11-24T08:35:13.984Z,49.77
2022-11-24T08:37:44.126Z,47.43
2022-11-24T08:40:13.526Z,48.93
2022-11-24T08:42:43.858Z,50.07
2022-11-24T08:45:21.048Z,47.03
2022-11-24T08:47:54.005Z,43.37
2022-11-24T08:50:24.673Z,46.23
2022-11-24T08:52:53.562Z,45.87
2022-11-24T08:55:21.971Z,43.17
2022-11-24T08:57:49.932Z,42.27
2022-11-24T09:00:23.743Z,44.50
2022-11-24T09:02:56.636Z,41.13
2022-11-24T09:05:50.785Z,41.33
2022-11-24T09:08:14.025Z,42.10
2022-11-24T09:10:42.012Z,43.70
2022-11-24T09:13:09.980Z,44.03
2022-11-24T09:15:37.993Z,43.50
2022-11-24T09:18:06.485Z,44.07
2022-11-24T09:20:36.446Z,40.47
2022-11-24T09:23:04.425Z,38.93
2022-11-24T09:25:33.152Z,43.20
2022-11-24T09:28:02.152Z,44.17
2022-11-24T09:30:30.349Z,39.13
2022-11-24T09:32:58.411Z,37.87
2022-11-24T09:35:26.745Z,39.33
2022-11-24T09:37:56.137Z,41.47
2022-11-24T09:40:24.398Z,38.13
2022-11-24T09:43:00.495Z,38.20
2022-11-24T09:46:04.445Z,36.80
2022-11-24T09:48:33.363Z,39.37
2022-11-24T09:51:04.969Z,39.97
2022-11-24T09:53:41.380Z,40.00
2022-11-24T09:56:19.719Z,37.37
2022-11-24T09:58:52.896Z,34.20
2022-11-24T10:01:22.683Z,32.70
2022-11-24T10:03:52.601Z,31.33
2022-11-24T10:06:30.549Z,30.23
2022-11-24T10:09:23.136Z,29.47
2022-11-24T10:12:02.678Z,30.97
2022-11-24T10:14:57.644Z,31.33
2022-11-24T10:17:42.421Z,32.63
2022-11-24T10:20:18.114Z,33.43
2022-11-24T10:22:53.364Z,32.40
2022-11-24T10:25:27.167Z,29.47
2022-11-24T10:28:00.505Z,29.20
2022-11-24T10:30:29.253Z,26.47
2022-11-24T10:32:59.530Z,26.20
2022-11-24T10:35:36.556Z,25.17
2022-11-24T10:38:15.167Z,29.00
2022-11-24T10:40:56.974Z,29.33
2022-11-24T10:43:28.837Z,29.10
2022-11-24T10:46:02.649Z,27.40
2022-11-24T10:48:38.345Z,28.80
2022-11-24T10:51:32.942Z,26.23
2022-11-24T10:54:06.783Z,29.83
2022-11-24T10:56:42.011Z,27.03
2022-11-24T10:59:38.726Z,27.10
2022-11-24T11:02:30.958Z,25.07
2022-11-24T11:04:59.403Z,22.97
2022-11-24T11:07:27.965Z,22.53
2022-11-24T11:10:19.046Z,23.93
2022-11-24T11:12:48.653Z,25.10
2022-11-24T11:15:28.905Z,25.20
2022-11-24T11:18:01.434Z,24.03
2022-11-24T11:20:32.373Z,22.80
2022-11-24T11:23:03.788Z,26.37
2022-11-24T11:25:34.350Z,30.30
2022-11-24T11:28:27.700Z,33.43
2022-11-24T11:31:20.915Z,30.27
2022-11-24T11:34:06.240Z,34.63
2022-11-24T11:36:40.906Z,34.53
2022-11-24T11:39:21.261Z,35.63
2022-11-24T11:41:51.119Z,35.77
2022-11-24T11:44:35.049Z,37.20
2022-11-24T11:47:13.904Z,38.27
2022-11-24T11:49:45.809Z,41.47
2022-11-24T11:52:54.853Z,41.90
2022-11-24T11:55:46.628Z,43.30
2022-11-24T11:59:09.046Z,45.10
2022-11-24T12:02:10.128Z,42.73
2022-11-24T12:04:48.781Z,44.93
2022-11-24T12:07:31.211Z,43.87
2022-11-24T12:10:04.635Z,43.87
2022-11-24T12:12:50.673Z,47.57
2022-11-24T12:15:24.089Z,50.23
2022-11-24T12:17:58.751Z,46.00
2022-11-24T12:20:49.139Z,47.63
2022-11-24T12:23:28.578Z,45.07
2022-11-24T12:26:02.477Z,47.13
2022-11-24T12:28:41.624Z,47.30
2022-11-24T12:31:16.221Z,47.90
2022-11-24T12:34:02.019Z,47.03
2022-11-24T12:36:45.975Z,48.57
2022-11-24T12:39:25.967Z,50.93
2022-11-24T12:42:05.884Z,50.03
2022-11-24T12:44:58.100Z,46.97
2022-11-24T12:47:35.190Z,50.37
2022-11-24T12:50:11.410Z,47.80
2022-11-24T12:52:47.621Z,50.17
2022-11-24T12:55:20.446Z,49.33
2022-11-24T12:57:54.911Z,54.07
2022-11-24T13:00:36.619Z,50.23
2022-11-24T13:03:20.556Z,51.53
2022-11-24T13:05:58.777Z,54.23
2022-11-24T13:08:27.586Z,55.10
2022-11-24T13:10:57.487Z,48.27
2022-11-24T13:13:31.372Z,53.63
2022-11-24T13:19:13.599Z,48.50
2022-11-24T13:22:04.386Z,48.83
2022-11-24T13:24:36.177Z,46.30
2022-11-24T13:27:29.957Z,48.83
2022-11-24T13:29:58.015Z,45.10
2022-11-24T13:33:03.439Z,45.97
2022-11-24T13:35:31.452Z,41.70
2022-11-24T13:38:01.070Z,39.87
2022-11-24T13:40:54.347Z,40.00
2022-11-24T13:43:30.117Z,37.23
2022-11-24T13:46:00.660Z,38.30
2022-11-24T13:49:00.155Z,38.97
2022-11-24T13:51:28.214Z,35.90
2022-11-24T13:54:00.852Z,35.53
2022-11-24T13:56:32.016Z,30.40
2022-11-24T13:59:02.235Z,29.40
2022-11-24T14:01:32.953Z,31.70
2022-11-24T14:04:31.403Z,32.63
2022-11-24T14:07:08.012Z,25.43
2022-11-24T14:09:43.878Z,23.67
2022-11-24T14:12:16.877Z,18.57
2022-11-24T14:14:47.030Z,17.43
2022-11-24T14:17:21.080Z,17.30
2022-11-24T14:19:50.777Z,15.97
2022-11-24T14:22:22.144Z,15.40
2022-11-24T14:24:56.481Z,14.97
2022-11-24T14:27:30.756Z,15.13
2022-11-24T14:30:00.801Z,15.27
2022-11-24T14:32:29.767Z,15.20
2022-11-24T14:34:57.825Z,14.53
2022-11-24T14:37:25.982Z,14.63
2022-11-24T14:39:55.430Z,17.67
2022-11-24T14:42:25.865Z,17.83
2022-11-24T14:44:56.532Z,16.00
2022-11-24T14:47:31.605Z,17.13
2022-11-24T14:50:11.020Z,16.83
2022-11-24T14:52:46.351Z,17.80
2022-11-24T14:55:28.443Z,17.97
2022-11-24T14:57:56.624Z,16.87
2022-11-24T15:00:34.837Z,16.00
2022-11-24T15:03:16.951Z,17.80
2022-11-24T15:05:53.964Z,16.97
2022-11-24T15:08:22.487Z,17.80
2022-11-24T15:10:59.013Z,19.60
2022-11-24T15:13:27.935Z,22.53
2022-11-24T15:16:02.930Z,20.33
2022-11-24T15:18:38.188Z,20.10
2022-11-24T15:21:06.363Z,21.30
2022-11-24T15:23:36.257Z,23.23
2022-11-24T15:26:35.477Z,21.07
2022-11-24T15:29:08.180Z,21.27
2022-11-24T15:31:38.277Z,20.87
2022-11-24T15:34:06.394Z,18.63
2022-11-24T15:36:34.685Z,20.00
2022-11-24T15:39:05.129Z,20.07
2022-11-24T15:41:36.657Z,18.37
2022-11-24T15:44:06.384Z,19.13
2022-11-24T15:46:38.575Z,18.13
2022-11-24T15:49:10.982Z,18.87
2022-11-24T15:51:43.504Z,20.20
2022-11-24T15:54:14.595Z,19.17
2022-11-24T15:56:44.400Z,18.67
2022-11-24T15:59:20.235Z,21.20
2022-11-24T16:01:50.813Z,19.67
2022-11-24T16:04:20.460Z,19.40
2022-11-24T16:06:48.711Z,18.37
2022-11-24T16:09:18.047Z,19.33
2022-11-24T16:11:46.023Z,19.57
2022-11-24T16:14:14.125Z,18.90
2022-11-24T16:16:42.366Z,19.30
2022-11-24T16:19:10.798Z,18.07
2022-11-24T16:21:40.258Z,19.90
2022-11-24T16:24:08.848Z,18.50
2022-11-24T16:26:36.859Z,18.53
2022-11-24T16:29:07.463Z,17.20
2022-11-24T16:31:36.818Z,19.57
2022-11-24T16:34:04.861Z,18.47
2022-11-24T16:36:32.937Z,17.63
2022-11-24T16:39:02.554Z,17.60
2022-11-24T16:41:30.596Z,19.53
2022-11-24T16:43:58.727Z,17.50
2022-11-24T16:46:27.015Z,19.87
2022-11-24T16:49:00.123Z,19.00
2022-11-24T16:51:34.440Z,19.73
2022-11-24T16:54:05.718Z,16.87
2022-11-24T16:56:33.952Z,17.77
2022-11-24T16:59:02.284Z,17.17
2022-11-24T17:01:30.821Z,20.87
2022-11-24T17:03:59.116Z,18.70
2022-11-24T17:06:27.682Z,19.60
2022-11-24T17:08:56.707Z,18.70
2022-11-24T17:11:27.804Z,18.87
2022-11-24T17:13:57.658Z,19.77
2022-11-24T17:16:27.169Z,20.43
2022-11-24T17:18:55.498Z,19.37
2022-11-24T17:21:25.133Z,21.17
2022-11-24T17:23:55.609Z,20.80
2022-11-24T17:26:28.275Z,23.40
2022-11-24T17:28:56.985Z,19.23
2022-11-24T17:31:27.219Z,21.53
2022-11-24T17:33:57.081Z,20.03
2022-11-24T17:36:29.332Z,23.10
2022-11-24T17:38:57.689Z,19.67
2022-11-24T17:41:27.751Z,19.93
2022-11-24T17:43:56.945Z,22.43
2022-11-24T17:46:25.534Z,20.80
2022-11-24T17:48:54.022Z,24.10
2022-11-24T17:51:23.620Z,22.00
2022-11-24T17:53:54.129Z,22.07
2022-11-24T17:56:26.847Z,23.43
2022-11-24T17:58:57.342Z,27.87
2022-11-24T18:01:26.472Z,28.57
2022-11-24T18:03:56.245Z,25.67
2022-11-24T18:06:25.424Z,30.10
2022-11-24T18:08:54.512Z,29.93
2022-11-24T18:11:30.576Z,30.83
2022-11-24T18:14:02.682Z,28.83
2022-11-24T18:16:32.472Z,30.73
2022-11-24T18:19:08.892Z,32.50
2022-11-24T18:21:38.815Z,36.10
2022-11-24T18:24:07.814Z,34.23
2022-11-24T18:26:37.924Z,33.97
2022-11-24T18:29:07.849Z,33.87
2022-11-24T18:31:36.769Z,35.80
2022-11-24T18:34:06.211Z,34.50
2022-11-24T18:36:35.122Z,40.17
2022-11-24T18:39:03.740Z,36.43
2022-11-24T18:41:31.858Z,39.83
2022-11-24T18:44:02.211Z,37.43
2022-11-24T18:46:31.718Z,38.90
2022-11-24T18:48:59.726Z,36.63
2022-11-24T18:51:30.021Z,37.03
2022-11-24T18:53:58.958Z,40.20
2022-11-24T18:56:27.842Z,40.00
2022-11-24T18:58:57.297Z,41.67
2022-11-24T19:01:26.639Z,37.47
2022-11-24T19:03:58.081Z,40.10
2022-11-24T19:06:31.920Z,38.83
2022-11-24T19:09:01.644Z,43.83
2022-11-24T19:11:32.395Z,36.67
2022-11-24T19:14:00.663Z,37.80
2022-11-24T19:16:29.074Z,40.97
2022-11-24T19:19:00.392Z,36.70
2022-11-24T19:21:29.057Z,40.00
2022-11-24T19:24:02.903Z,37.83
2022-11-24T19:26:33.028Z,35.60
2022-11-24T19:29:01.048Z,37.93
2022-11-24T19:31:29.164Z,40.80
2022-11-24T19:33:59.710Z,39.83
2022-11-24T19:36:28.024Z,39.10
2022-11-24T19:38:57.531Z,42.07
2022-11-24T19:41:27.574Z,40.37
2022-11-24T19:43:56.581Z,41.60
2022-11-24T19:46:27.252Z,41.13
2022-11-24T19:48:57.007Z,42.93
2022-11-24T19:51:30.474Z,43.17
2022-11-24T19:53:58.956Z,41.77
2022-11-24T19:56:29.114Z,39.00
2022-11-24T19:58:57.652Z,38.13
2022-11-24T20:01:27.618Z,38.40
2022-11-24T20:03:59.192Z,40.07
2022-11-24T20:06:30.067Z,42.97
2022-11-24T20:09:00.354Z,39.63
2022-11-24T20:11:29.325Z,42.27
2022-11-24T20:13:58.207Z,42.87
2022-11-24T20:16:29.563Z,48.17
2022-11-24T20:18:59.555Z,48.70
2022-11-24T20:21:31.207Z,45.67
2022-11-24T20:24:01.116Z,48.60
2022-11-24T20:26:34.601Z,45.27
2022-11-24T20:29:03.963Z,44.43
2022-11-24T20:31:34.237Z,41.03
2022-11-24T20:34:03.719Z,42.20
2022-11-24T20:36:34.618Z,43.00
2022-11-24T20:39:05.176Z,44.07
2022-11-24T20:41:35.148Z,46.23
2022-11-24T20:44:07.168Z,44.57
2022-11-24T20:46:37.859Z,47.67
2022-11-24T20:49:11.448Z,47.00
2022-11-24T20:51:44.862Z,47.93
2022-11-24T20:54:14.563Z,46.17
2022-11-24T20:56:46.329Z,47.80
2022-11-24T20:59:16.416Z,45.93
2022-11-24T21:01:46.138Z,45.87
2022-11-24T21:04:16.660Z,47.90
2022-11-24T21:06:46.183Z,44.53
2022-11-24T21:09:14.192Z,47.27
2022-11-24T21:11:42.666Z,42.43
2022-11-24T21:14:11.266Z,42.40
2022-11-24T21:16:41.043Z,44.27
2022-11-24T21:19:12.426Z,42.60
2022-11-24T21:21:42.833Z,43.30
2022-11-24T21:24:14.755Z,44.07
2022-11-24T21:26:47.479Z,39.77
2022-11-24T21:29:17.254Z,44.87
2022-11-24T21:31:45.725Z,40.70
2022-11-24T21:34:16.205Z,44.13
2022-11-24T21:36:45.528Z,41.57
2022-11-24T21:39:16.245Z,37.93
2022-11-24T21:41:45.534Z,37.70
2022-11-24T21:44:13.853Z,38.97
2022-11-24T21:46:47.004Z,38.73
2022-11-24T21:49:17.608Z,38.50
2022-11-24T21:51:47.140Z,41.83
2022-11-24T21:54:16.534Z,40.20
2022-11-24T21:56:44.505Z,44.57
2022-11-24T21:59:12.591Z,43.77
2022-11-24T22:01:40.579Z,42.43
2022-11-24T22:04:08.609Z,47.33
2022-11-24T22:06:36.645Z,49.23
2022-11-24T22:09:04.822Z,46.63
2022-11-24T22:11:34.191Z,48.67
2022-11-24T22:14:02.195Z,48.87
2022-11-24T22:16:30.897Z,48.57
2022-11-24T22:19:00.971Z,52.70
2022-11-24T22:21:30.762Z,50.33
2022-11-24T22:23:58.785Z,50.67
2022-11-24T22:26:27.924Z,55.20
2022-11-24T22:29:01.272Z,56.17
2022-11-24T22:31:31.761Z,53.37
2022-11-24T22:34:00.992Z,56.10
2022-11-24T22:36:30.271Z,54.93
2022-11-24T22:38:59.899Z,55.07
2022-11-24T22:41:27.920Z,49.33
2022-11-24T22:43:57.305Z,48.63
2022-11-24T22:46:28.523Z,50.63
2022-11-24T22:48:59.073Z,49.13
2022-11-24T22:51:28.974Z,46.13
2022-11-24T22:54:00.530Z,49.20
2022-11-24T22:56:29.689Z,47.90
2022-11-24T22:58:59.236Z,48.60
2022-11-24T23:01:28.577Z,50.37
2022-11-24T23:03:56.811Z,49.77
2022-11-24T23:06:26.479Z,54.03
2022-11-24T23:08:54.806Z,50.80
2022-11-24T23:11:32.745Z,52.30
2022-11-24T23:14:07.127Z,52.90
2022-11-24T23:16:35.473Z,55.10
2022-11-24T23:19:03.821Z,53.67
2022-11-24T23:21:33.207Z,51.10
2022-11-24T23:24:05.144Z,51.90
2022-11-24T23:26:35.253Z,51.00
2022-11-24T23:29:05.480Z,48.53
2022-11-24T23:31:33.643Z,49.03
2022-11-24T23:34:03.393Z,46.10
2022-11-24T23:36:32.375Z,49.83
2022-11-24T23:39:05.811Z,48.87
2022-11-24T23:41:33.823Z,45.80
2022-11-24T23:44:02.517Z,45.37
2022-11-24T23:46:32.133Z,44.37
2022-11-24T23:49:00.319Z,44.17
2022-11-24T23:51:29.934Z,45.67
2022-11-24T23:53:58.304Z,48.97
2022-11-24T23:56:30.752Z,47.23
2022-11-24T23:58:59.690Z,49.40
